createdAt,value
2022-10-01T00:01:09.910Z,75.09
2022-10-01T00:06:11.186Z,74.28
2022-10-01T00:11:13.080Z,74.44
2022-10-01T00:16:14.417Z,74.43
2022-10-01T00:21:15.685Z,73.47
2022-10-01T00:26:17.082Z,73.69
2022-10-01T00:31:18.368Z,74.91
2022-10-01T00:36:19.613Z,75.75
2022-10-01T00:41:20.852Z,75.62
2022-10-01T00:46:22.275Z,75.90
2022-10-01T00:51:23.595Z,75.18
2022-10-01T00:56:24.867Z,74.83
2022-10-01T01:01:26.633Z,76.23
2022-10-01T01:06:27.974Z,76.30
2022-10-01T01:11:29.399Z,75.87
2022-10-01T01:16:32.677Z,74.51
2022-10-01T01:21:34.225Z,73.81
2022-10-01T01:26:35.724Z,74.00
2022-10-01T01:31:37.527Z,74.28
2022-10-01T01:36:39.026Z,74.11
2022-10-01T01:41:40.266Z,73.05
2022-10-01T01:46:41.520Z,72.88
2022-10-01T01:51:42.762Z,72.18
2022-10-01T01:56:44.079Z,72.27
2022-10-01T02:01:45.324Z,72.87
2022-10-01T02:06:46.558Z,73.06
2022-10-01T02:11:47.917Z,73.54
2022-10-01T02:16:49.270Z,74.01
2022-10-01T02:21:50.473Z,73.83
2022-10-01T02:26:51.738Z,72.80
2022-10-01T02:31:55.497Z,73.24
2022-10-01T02:36:56.741Z,74.61
2022-10-01T02:41:57.941Z,74.39
2022-10-01T02:47:02.288Z,73.82
2022-10-01T02:52:03.515Z,73.54
2022-10-01T02:57:23.093Z,73.50
2022-10-01T03:02:25.780Z,74.33
2022-10-01T03:07:27.119Z,73.83
2022-10-01T03:12:28.335Z,73.07
2022-10-01T03:17:29.546Z,73.16
2022-10-01T03:22:30.793Z,73.30
2022-10-01T03:27:32.226Z,72.61
2022-10-01T03:32:33.477Z,73.17
2022-10-01T03:37:34.819Z,73.69
2022-10-01T03:42:36.065Z,73.20
2022-10-01T03:47:37.717Z,73.48
2022-10-01T03:52:38.931Z,74.72
2022-10-01T03:57:40.139Z,73.92
2022-10-01T04:02:41.399Z,74.29
2022-10-01T04:07:42.721Z,75.15
2022-10-01T04:12:44.256Z,76.03
2022-10-01T04:17:46.185Z,75.91
2022-10-01T04:22:47.518Z,75.08
2022-10-01T04:27:48.889Z,75.33
2022-10-01T04:32:50.186Z,76.32
2022-10-01T04:37:51.382Z,75.68
2022-10-01T04:42:52.625Z,78.83
2022-10-01T04:47:53.959Z,80.97
2022-10-01T04:52:55.170Z,82.40
2022-10-01T04:57:56.410Z,83.63
2022-10-01T05:02:57.881Z,85.88
2022-10-01T05:07:59.082Z,87.85
2022-10-01T05:13:02.374Z,88.82
2022-10-01T05:18:03.619Z,88.73
2022-10-01T05:23:04.942Z,87.63
2022-10-01T05:28:06.310Z,86.21
2022-10-01T05:33:07.580Z,85.41
2022-10-01T05:38:08.802Z,85.38
2022-10-01T05:43:10.121Z,84.73
2022-10-01T05:48:12.029Z,84.84
2022-10-01T05:53:16.456Z,84.26
2022-10-01T05:58:17.737Z,84.74
2022-10-01T06:03:19.121Z,84.32
2022-10-01T06:08:21.579Z,83.99
2022-10-01T06:13:23.086Z,84.53
2022-10-01T06:18:24.354Z,84.87
2022-10-01T06:23:25.553Z,86.13
2022-10-01T06:28:26.866Z,86.54
2022-10-01T06:33:28.154Z,86.82
2022-10-01T06:38:29.841Z,85.90
2022-10-01T06:43:31.204Z,84.02
2022-10-01T06:48:32.575Z,83.94
2022-10-01T06:53:33.846Z,84.35
2022-10-01T06:58:35.104Z,84.36
2022-10-01T07:03:36.351Z,83.50
2022-10-01T07:08:37.626Z,83.01
2022-10-01T07:13:38.874Z,83.12
2022-10-01T07:18:40.155Z,82.42
2022-10-01T07:23:41.354Z,82.26
2022-10-01T07:28:44.550Z,81.10
2022-10-01T07:33:45.753Z,81.02
2022-10-01T07:38:47.115Z,81.27
2022-10-01T07:43:48.683Z,80.90
2022-10-01T07:48:49.926Z,80.16
2022-10-01T07:53:51.155Z,80.39
2022-10-01T07:58:52.415Z,79.98
2022-10-01T08:03:53.695Z,80.97
2022-10-01T08:08:54.973Z,79.09
2022-10-01T08:13:57.194Z,77.25
2022-10-01T08:18:59.321Z,76.94
2022-10-01T08:24:00.577Z,77.06
2022-10-01T08:29:01.892Z,76.12
2022-10-01T08:34:03.200Z,75.91
2022-10-01T08:39:04.408Z,76.44
2022-10-01T08:44:05.616Z,76.31
2022-10-01T08:49:06.858Z,75.94
2022-10-01T08:54:08.631Z,75.97
2022-10-01T08:59:09.831Z,75.75
2022-10-01T09:04:11.267Z,75.52
2022-10-01T09:09:12.506Z,75.28
2022-10-01T09:14:13.999Z,74.47
2022-10-01T09:19:15.215Z,74.88
2022-10-01T09:24:16.607Z,74.64
2022-10-01T09:29:17.855Z,74.40
2022-10-01T09:34:19.614Z,72.99
2022-10-01T09:39:20.823Z,72.57
2022-10-01T09:44:22.032Z,73.24
2022-10-01T09:49:23.291Z,73.51
2022-10-01T09:54:24.546Z,74.96
2022-10-01T09:59:25.763Z,75.05
2022-10-01T10:04:26.985Z,75.45
2022-10-01T10:09:28.201Z,76.47
2022-10-01T10:14:29.437Z,77.15
2022-10-01T10:19:30.942Z,77.59
2022-10-01T10:24:33.557Z,77.39
2022-10-01T10:29:34.807Z,76.92
2022-10-01T10:34:36.058Z,79.11
2022-10-01T10:39:37.311Z,80.10
2022-10-01T10:44:39.881Z,81.29
2022-10-01T10:49:41.285Z,82.77
2022-10-01T10:54:42.504Z,83.04
2022-10-01T10:59:43.725Z,82.34
2022-10-01T11:04:44.938Z,82.98
2022-10-01T11:09:46.198Z,82.58
2022-10-01T11:14:47.419Z,84.58
2022-10-01T11:19:48.695Z,84.77
2022-10-01T11:24:49.934Z,85.49
2022-10-01T11:29:51.148Z,85.98
2022-10-01T11:34:52.436Z,86.10
2022-10-01T11:39:53.650Z,86.44
2022-10-01T11:45:00.495Z,86.22
2022-10-01T11:50:03.079Z,86.87
2022-10-01T11:55:24.270Z,86.79
2022-10-01T12:00:27.463Z,87.03
2022-10-01T12:05:28.829Z,87.84
2022-10-01T12:10:30.133Z,87.75
2022-10-01T12:15:31.581Z,88.08
2022-10-01T12:20:32.935Z,87.94
2022-10-01T12:25:34.174Z,88.41
2022-10-01T12:30:35.369Z,88.05
2022-10-01T12:35:36.631Z,88.11
2022-10-01T12:40:38.275Z,87.55
2022-10-01T12:45:39.475Z,87.38
2022-10-01T12:50:40.671Z,87.66
2022-10-01T12:55:41.875Z,87.04
2022-10-01T13:00:43.372Z,86.76
2022-10-01T13:05:44.608Z,87.24
2022-10-01T13:10:45.872Z,85.21
2022-10-01T13:15:50.207Z,86.16
2022-10-01T13:20:54.100Z,84.77
2022-10-01T13:25:55.327Z,84.78
2022-10-01T13:30:56.615Z,82.71
2022-10-01T13:35:57.938Z,82.29
2022-10-01T13:40:59.667Z,82.75
2022-10-01T13:46:02.566Z,83.38
2022-10-01T13:51:05.152Z,83.31
2022-10-01T13:56:06.422Z,82.16
2022-10-01T14:01:11.317Z,81.37
2022-10-01T14:06:15.182Z,81.84
2022-10-01T14:11:35.243Z,81.40
2022-10-01T14:16:36.937Z,82.80
2022-10-01T14:21:38.291Z,84.34
2022-10-01T14:26:39.489Z,83.66
2022-10-01T14:31:40.780Z,84.40
2022-10-01T14:42:11.556Z,82.06
2022-10-01T14:47:18.071Z,82.14
2022-10-01T14:52:19.312Z,82.98
2022-10-01T14:57:20.613Z,83.38
2022-10-01T15:02:21.826Z,83.52
2022-10-01T15:07:23.027Z,83.90
2022-10-01T15:12:24.291Z,83.18
2022-10-01T15:17:25.464Z,82.77
2022-10-01T15:22:26.938Z,82.50
2022-10-01T15:27:28.233Z,82.42
2022-10-01T15:32:29.561Z,82.24
2022-10-01T15:37:31.313Z,82.30
2022-10-01T15:42:32.839Z,82.45
2022-10-01T15:47:34.178Z,81.33
2022-10-01T15:52:51.373Z,80.12
2022-10-01T15:57:52.805Z,78.01
2022-10-01T16:02:54.067Z,77.47
2022-10-01T16:07:56.172Z,77.77
2022-10-01T16:12:58.840Z,77.79
2022-10-01T16:18:02.312Z,78.52
2022-10-01T16:23:03.552Z,78.37
2022-10-01T16:28:05.403Z,78.91
2022-10-01T16:33:07.006Z,78.99
2022-10-01T16:38:09.492Z,79.50
2022-10-01T16:43:10.745Z,80.25
2022-10-01T16:48:12.003Z,80.59
2022-10-01T16:53:13.242Z,82.25
2022-10-01T16:58:14.574Z,82.41
2022-10-01T17:03:15.812Z,81.82
2022-10-01T17:08:17.132Z,81.65
2022-10-01T17:13:18.358Z,81.25
2022-10-01T17:18:19.594Z,81.35
2022-10-01T17:23:22.358Z,81.45
2022-10-01T17:28:24.402Z,81.84
2022-10-01T17:33:27.178Z,81.87
2022-10-01T17:38:28.403Z,82.23
2022-10-01T17:43:29.697Z,82.16
2022-10-01T17:48:30.953Z,82.82
2022-10-01T17:53:38.249Z,82.59
2022-10-01T17:58:45.258Z,82.52
2022-10-01T18:03:47.258Z,82.39
2022-10-01T18:08:55.446Z,82.52
2022-10-01T18:13:57.068Z,82.15
2022-10-01T18:24:19.478Z,82.20
2022-10-01T18:29:21.086Z,82.02
2022-10-01T18:34:22.353Z,82.51
2022-10-01T18:39:23.566Z,82.59
2022-10-01T18:44:24.798Z,82.49
2022-10-01T18:49:26.010Z,83.09
2022-10-01T18:54:27.229Z,82.75
2022-10-01T18:59:28.441Z,84.17
2022-10-01T19:04:30.385Z,85.03
2022-10-01T19:09:31.614Z,85.80
2022-10-01T19:14:32.823Z,86.68
2022-10-01T19:19:34.027Z,86.76
2022-10-01T19:24:35.340Z,88.25
2022-10-01T19:29:36.556Z,88.96
2022-10-01T19:34:37.754Z,88.89
2022-10-01T19:39:39.017Z,88.16
2022-10-01T19:44:40.219Z,88.25
2022-10-01T19:49:41.490Z,88.95
2022-10-01T19:54:42.709Z,89.61
2022-10-01T19:59:43.973Z,88.84
2022-10-01T20:04:45.675Z,88.00
2022-10-01T20:09:46.890Z,87.12
2022-10-01T20:15:06.948Z,86.98
2022-10-01T20:20:08.228Z,87.04
2022-10-01T20:25:09.583Z,86.61
2022-10-01T20:30:11.664Z,85.83
2022-10-01T20:35:13.752Z,85.83
2022-10-01T20:40:17.770Z,86.04
2022-10-01T20:45:19.662Z,85.54
2022-10-01T20:50:21.262Z,84.52
2022-10-01T20:55:29.097Z,84.65
2022-10-01T21:00:31.087Z,84.83
2022-10-01T21:05:32.306Z,85.66
2022-10-01T21:10:33.533Z,85.82
2022-10-01T21:15:34.739Z,84.86
2022-10-01T21:20:35.951Z,85.40
2022-10-01T21:25:37.154Z,85.46
2022-10-01T21:30:41.537Z,84.23
2022-10-01T21:35:43.081Z,84.34
2022-10-01T21:40:44.274Z,86.21
2022-10-01T21:45:45.534Z,84.93
2022-10-01T21:50:46.767Z,84.02
2022-10-01T21:55:47.963Z,84.30
2022-10-01T22:00:52.233Z,83.99
2022-10-01T22:05:53.483Z,84.77
2022-10-01T22:10:54.724Z,84.70
2022-10-01T22:15:55.965Z,84.78
2022-10-01T22:20:57.306Z,84.27
2022-10-01T22:25:58.523Z,83.61
2022-10-01T22:30:59.757Z,84.08
2022-10-01T22:36:02.274Z,83.73
2022-10-01T22:41:03.536Z,83.95
2022-10-01T22:46:04.803Z,84.09
2022-10-01T22:51:06.036Z,83.48
2022-10-01T22:56:07.287Z,83.29
2022-10-01T23:01:08.514Z,82.61
2022-10-01T23:06:09.747Z,83.75
2022-10-01T23:11:10.951Z,83.04
2022-10-01T23:16:12.184Z,82.14
2022-10-01T23:21:13.483Z,82.32
2022-10-01T23:26:14.786Z,81.93
2022-10-01T23:31:16.505Z,82.44
2022-10-01T23:36:17.758Z,82.23
2022-10-01T23:41:19.547Z,82.55
2022-10-01T23:46:20.773Z,82.91
2022-10-01T23:51:22.040Z,82.54
2022-10-01T23:56:41.981Z,83.14
